createdAt,value
2023-08-22T00:02:19.337Z,4.05
2023-08-22T00:04:47.893Z,3.78
2023-08-22T00:07:17.080Z,5.95
2023-08-22T00:09:45.216Z,5.60
2023-08-22T00:12:12.991Z,5.53
2023-08-22T00:14:40.745Z,5.00
2023-08-22T00:17:09.640Z,5.03
2023-08-22T00:19:37.808Z,4.22
2023-08-22T00:22:05.646Z,3.03
2023-08-22T00:24:34.796Z,4.07
2023-08-22T00:27:02.522Z,5.50
2023-08-22T00:29:30.229Z,4.80
2023-08-22T00:31:59.486Z,5.60
2023-08-22T00:34:27.340Z,3.23
2023-08-22T00:36:55.051Z,3.30
2023-08-22T00:39:25.306Z,2.63
2023-08-22T00:41:54.384Z,4.23
2023-08-22T00:44:22.167Z,3.70
2023-08-22T00:46:49.989Z,3.05
2023-08-22T00:49:18.210Z,3.60
2023-08-22T00:51:46.384Z,4.80
2023-08-22T00:54:14.946Z,6.43
2023-08-22T00:56:43.083Z,7.05
2023-08-22T00:59:12.850Z,7.80
2023-08-22T01:01:40.608Z,5.90
2023-08-22T01:04:08.365Z,6.90
2023-08-22T01:06:43.658Z,4.07
2023-08-22T01:09:19.845Z,5.70
2023-08-22T01:11:51.435Z,4.60
2023-08-22T01:14:25.010Z,5.90
2023-08-22T01:16:53.646Z,3.63
2023-08-22T01:19:22.239Z,5.95
2023-08-22T01:21:52.932Z,8.23
2023-08-22T01:24:20.860Z,2.63
2023-08-22T01:26:49.207Z,5.17
2023-08-22T01:29:23.208Z,9.53
2023-08-22T01:31:58.504Z,4.10
2023-08-22T01:34:30.522Z,5.47
2023-08-22T01:37:01.554Z,6.80
2023-08-22T01:39:30.768Z,4.97
2023-08-22T01:41:59.232Z,6.87
2023-08-22T01:44:29.277Z,4.50
2023-08-22T01:46:57.077Z,3.87
2023-08-22T01:49:25.217Z,8.37
2023-08-22T01:51:52.933Z,6.10
2023-08-22T01:54:22.038Z,7.30
2023-08-22T01:56:49.781Z,6.93
2023-08-22T01:59:17.517Z,6.43
2023-08-22T02:01:45.372Z,4.93
2023-08-22T02:04:13.094Z,7.10
2023-08-22T02:06:40.833Z,8.47
2023-08-22T02:09:08.588Z,4.13
2023-08-22T02:11:37.716Z,3.70
2023-08-22T02:14:05.441Z,4.23
2023-08-22T02:16:33.186Z,6.47
2023-08-22T02:19:00.999Z,5.00
2023-08-22T02:21:28.853Z,4.50
2023-08-22T02:23:56.617Z,4.37
2023-08-22T02:26:24.385Z,3.97
2023-08-22T02:28:54.125Z,4.27
2023-08-22T02:31:22.506Z,5.00
2023-08-22T02:33:50.345Z,7.43
2023-08-22T02:36:18.285Z,4.73
2023-08-22T02:38:46.194Z,7.00
2023-08-22T02:41:13.928Z,4.50
2023-08-22T02:43:42.022Z,3.87
2023-08-22T02:46:11.575Z,7.90
2023-08-22T02:48:39.585Z,4.70
2023-08-22T02:51:07.406Z,5.23
2023-08-22T02:53:35.162Z,3.60
2023-08-22T02:56:03.339Z,2.83
2023-08-22T02:58:31.893Z,4.50
2023-08-22T03:00:59.697Z,2.97
2023-08-22T03:03:29.543Z,2.43
2023-08-22T03:05:58.379Z,3.67
2023-08-22T03:08:26.251Z,3.50
2023-08-22T03:10:53.976Z,4.60
2023-08-22T03:13:21.725Z,2.83
2023-08-22T03:15:49.439Z,2.93
2023-08-22T03:18:17.581Z,3.93
2023-08-22T03:20:47.750Z,4.73
2023-08-22T03:23:16.316Z,2.67
2023-08-22T03:25:44.096Z,4.60
2023-08-22T03:28:11.844Z,6.73
2023-08-22T03:30:39.572Z,5.83
2023-08-22T03:33:07.463Z,3.63
2023-08-22T03:35:35.196Z,4.57
2023-08-22T03:38:04.497Z,5.17
2023-08-22T03:40:32.310Z,3.30
2023-08-22T03:43:00.246Z,2.60
2023-08-22T03:45:27.991Z,4.47
2023-08-22T03:47:55.885Z,5.03
2023-08-22T03:50:23.648Z,4.00
2023-08-22T03:52:51.389Z,2.17
2023-08-22T03:55:20.505Z,2.90
2023-08-22T03:57:48.572Z,4.10
2023-08-22T04:00:17.074Z,3.83
2023-08-22T04:02:44.939Z,2.63
2023-08-22T04:05:12.925Z,3.13
2023-08-22T04:07:40.975Z,3.55
2023-08-22T04:10:09.757Z,5.67
2023-08-22T04:12:38.823Z,3.97
2023-08-22T04:15:07.263Z,3.63
2023-08-22T04:17:35.223Z,2.70
2023-08-22T04:20:03.085Z,2.60
2023-08-22T04:22:31.869Z,5.97
2023-08-22T04:24:59.780Z,4.40
2023-08-22T04:27:27.960Z,3.77
2023-08-22T04:29:57.216Z,3.00
2023-08-22T04:32:25.468Z,5.40
2023-08-22T04:34:53.511Z,2.97
2023-08-22T04:37:21.304Z,3.77
2023-08-22T04:39:49.050Z,5.03
2023-08-22T04:42:16.750Z,3.87
2023-08-22T04:44:44.585Z,6.37
2023-08-22T04:47:13.735Z,3.83
2023-08-22T04:49:41.525Z,2.60
2023-08-22T04:52:09.289Z,3.43
2023-08-22T04:54:37.076Z,4.47
2023-08-22T04:57:05.224Z,4.60
2023-08-22T04:59:32.960Z,6.93
2023-08-22T05:02:00.758Z,4.60
2023-08-22T05:04:29.875Z,5.10
2023-08-22T05:06:57.590Z,7.40
2023-08-22T05:09:25.381Z,3.47
2023-08-22T05:11:53.256Z,5.50
2023-08-22T05:14:22.401Z,5.20
2023-08-22T05:16:52.479Z,4.17
2023-08-22T05:19:20.435Z,5.47
2023-08-22T05:21:49.522Z,5.20
2023-08-22T05:24:17.230Z,3.87
2023-08-22T05:26:44.976Z,5.80
2023-08-22T05:29:14.542Z,5.37
2023-08-22T05:31:42.349Z,4.33
2023-08-22T05:34:10.122Z,5.83
2023-08-22T05:36:40.396Z,7.47
2023-08-22T05:39:09.538Z,5.47
2023-08-22T05:41:37.251Z,4.97
2023-08-22T05:44:05.395Z,3.97
2023-08-22T05:46:33.151Z,4.73
2023-08-22T05:49:00.916Z,4.93
2023-08-22T05:51:28.976Z,6.33
2023-08-22T05:53:56.687Z,5.37
2023-08-22T05:56:25.730Z,7.37
2023-08-22T05:58:53.446Z,10.23
2023-08-22T06:01:21.213Z,4.27
2023-08-22T06:03:48.942Z,7.37
2023-08-22T06:06:17.192Z,12.03
2023-08-22T06:08:44.945Z,6.33
2023-08-22T06:11:12.626Z,7.93
2023-08-22T06:13:41.657Z,4.60
2023-08-22T06:16:10.191Z,8.17
2023-08-22T06:18:37.948Z,4.97
2023-08-22T06:21:05.621Z,6.03
2023-08-22T06:23:33.392Z,11.43
2023-08-22T06:26:01.100Z,4.63
2023-08-22T06:28:28.830Z,4.07
2023-08-22T06:31:03.129Z,5.40
2023-08-22T06:33:31.113Z,5.87
2023-08-22T06:35:58.936Z,4.13
2023-08-22T06:38:27.219Z,4.60
2023-08-22T06:40:55.063Z,6.53
2023-08-22T06:43:23.509Z,2.72
2023-08-22T06:45:51.286Z,6.07
2023-08-22T06:48:34.550Z,4.70
2023-08-22T06:51:08.288Z,5.75
2023-08-22T06:53:35.983Z,3.85
2023-08-22T06:56:05.228Z,3.80
2023-08-22T06:58:33.077Z,3.22
2023-08-22T07:01:00.844Z,4.30
2023-08-22T07:03:30.127Z,3.17
2023-08-22T07:05:57.873Z,7.93
2023-08-22T07:08:25.560Z,8.85
2023-08-22T07:10:53.343Z,3.92
2023-08-22T07:13:22.961Z,4.72
2023-08-22T07:15:50.997Z,3.42
2023-08-22T07:18:18.866Z,3.33
2023-08-22T07:20:52.680Z,3.60
2023-08-22T07:23:21.200Z,5.32
2023-08-22T07:25:50.078Z,2.92
2023-08-22T07:28:17.819Z,6.05
2023-08-22T07:30:46.726Z,4.82
2023-08-22T07:33:15.230Z,6.38
2023-08-22T07:35:43.872Z,8.70
2023-08-22T07:38:12.914Z,6.50
2023-08-22T07:40:42.231Z,4.25
2023-08-22T07:43:10.192Z,4.93
2023-08-22T07:45:38.007Z,4.43
2023-08-22T07:48:06.706Z,4.80
2023-08-22T07:50:34.852Z,5.03
2023-08-22T07:53:02.724Z,5.57
2023-08-22T07:55:31.772Z,3.67
2023-08-22T07:57:59.485Z,4.63
2023-08-22T08:00:27.212Z,5.47
2023-08-22T08:02:55.265Z,4.60
2023-08-22T08:05:23.143Z,3.75
2023-08-22T08:07:50.833Z,6.47
2023-08-22T08:10:18.575Z,4.68
2023-08-22T08:12:48.147Z,5.53
2023-08-22T08:15:15.961Z,5.50
2023-08-22T08:17:44.119Z,4.28
2023-08-22T08:20:12.915Z,6.93
2023-08-22T08:22:40.815Z,4.75
2023-08-22T08:25:09.379Z,8.15
2023-08-22T08:27:37.109Z,5.15
2023-08-22T08:30:07.391Z,5.70
2023-08-22T08:32:35.109Z,6.70
2023-08-22T08:35:02.935Z,6.35
2023-08-22T08:37:30.675Z,10.30
2023-08-22T08:39:58.427Z,7.00
2023-08-22T08:42:26.455Z,3.58
2023-08-22T08:44:54.579Z,5.07
2023-08-22T08:47:23.930Z,11.32
2023-08-22T08:49:52.857Z,10.63
2023-08-22T08:52:20.862Z,8.27
2023-08-22T08:54:49.563Z,6.05
2023-08-22T08:57:17.647Z,8.07
2023-08-22T08:59:45.387Z,6.65
2023-08-22T09:02:19.256Z,6.80
2023-08-22T09:04:50.317Z,5.80
2023-08-22T09:07:19.504Z,4.20
2023-08-22T09:09:47.279Z,6.10
2023-08-22T09:12:15.943Z,6.45
2023-08-22T09:14:46.066Z,5.40
2023-08-22T09:17:15.822Z,4.20
2023-08-22T09:19:43.747Z,4.57
2023-08-22T09:22:15.203Z,5.45
2023-08-22T09:24:52.895Z,6.38
2023-08-22T09:27:24.075Z,6.35
2023-08-22T09:29:52.046Z,7.68
2023-08-22T09:32:24.347Z,4.82
2023-08-22T09:34:56.397Z,4.50
2023-08-22T09:37:37.932Z,3.53
2023-08-22T09:40:11.317Z,9.52
2023-08-22T09:42:41.038Z,7.40
2023-08-22T09:45:09.752Z,7.57
2023-08-22T09:47:42.140Z,7.60
2023-08-22T09:50:12.974Z,5.47
2023-08-22T09:52:42.471Z,3.72
2023-08-22T09:55:13.203Z,3.83
2023-08-22T09:57:42.289Z,3.90
2023-08-22T10:00:12.049Z,4.05
2023-08-22T10:02:40.700Z,3.28
2023-08-22T10:05:11.214Z,6.80
2023-08-22T10:07:39.031Z,3.65
2023-08-22T10:10:09.294Z,6.20
2023-08-22T10:12:38.000Z,4.95
2023-08-22T10:15:08.740Z,4.40
2023-08-22T10:17:37.851Z,3.30
2023-08-22T10:20:08.014Z,5.03
2023-08-22T10:22:36.332Z,4.13
2023-08-22T10:25:07.552Z,3.95
2023-08-22T10:27:39.130Z,7.13
2023-08-22T10:30:25.388Z,4.43
2023-08-22T10:33:13.879Z,3.80
2023-08-22T10:36:03.783Z,5.05
2023-08-22T10:38:31.702Z,5.28
2023-08-22T10:40:59.473Z,6.18
2023-08-22T10:43:41.223Z,3.67
2023-08-22T10:46:10.738Z,5.60
2023-08-22T10:48:38.943Z,6.18
2023-08-22T10:51:08.105Z,4.10
2023-08-22T10:53:44.246Z,5.45
2023-08-22T10:56:20.180Z,3.83
2023-08-22T10:58:59.615Z,9.80
2023-08-22T11:01:27.709Z,6.75
2023-08-22T11:03:57.132Z,4.10
2023-08-22T11:06:25.880Z,3.33
2023-08-22T11:08:54.260Z,2.95
2023-08-22T11:11:25.333Z,4.30
2023-08-22T11:13:57.967Z,10.93
2023-08-22T11:16:26.803Z,3.35
2023-08-22T11:18:54.759Z,3.67
2023-08-22T11:21:22.494Z,3.38
2023-08-22T11:23:50.268Z,5.53
2023-08-22T11:26:24.344Z,5.10
2023-08-22T11:28:52.404Z,2.88
2023-08-22T11:31:21.647Z,5.28
2023-08-22T11:33:51.702Z,3.50
2023-08-22T11:36:25.615Z,3.10
2023-08-22T11:38:55.616Z,3.92
2023-08-22T11:41:25.204Z,5.97
2023-08-22T11:43:54.098Z,5.47
2023-08-22T11:46:24.058Z,6.25
2023-08-22T11:48:52.944Z,3.22
2023-08-22T11:51:21.966Z,5.20
2023-08-22T11:53:50.299Z,4.47
2023-08-22T11:56:18.843Z,5.18
2023-08-22T11:58:54.087Z,6.00
2023-08-22T12:01:25.167Z,6.10
2023-08-22T12:03:57.709Z,4.63
2023-08-22T12:06:25.696Z,2.90
2023-08-22T12:09:01.726Z,4.50
2023-08-22T12:11:31.647Z,3.47
2023-08-22T12:13:59.383Z,1.88
2023-08-22T12:16:29.491Z,2.63
2023-08-22T12:18:59.142Z,3.92
2023-08-22T12:21:28.387Z,4.05
2023-08-22T12:23:56.115Z,4.13
2023-08-22T12:26:23.882Z,3.15
2023-08-22T12:28:51.584Z,4.60
2023-08-22T12:31:20.259Z,3.72
2023-08-22T12:33:49.337Z,5.38
2023-08-22T12:36:17.052Z,3.38
2023-08-22T12:38:45.053Z,3.00
2023-08-22T12:41:14.243Z,4.63
2023-08-22T12:43:41.948Z,3.33
2023-08-22T12:46:09.925Z,1.98
2023-08-22T12:48:38.157Z,5.13
2023-08-22T12:51:07.305Z,3.10
2023-08-22T12:53:36.363Z,2.90
2023-08-22T12:56:04.247Z,1.88
2023-08-22T12:58:33.172Z,2.78
2023-08-22T13:01:00.953Z,2.83
2023-08-22T13:03:28.782Z,2.15
2023-08-22T13:05:56.665Z,3.10
2023-08-22T13:08:27.271Z,1.38
2023-08-22T13:10:55.350Z,1.92
2023-08-22T13:13:23.615Z,2.55
2023-08-22T13:15:51.929Z,1.88
2023-08-22T13:18:19.708Z,1.63
2023-08-22T13:20:47.420Z,2.85
2023-08-22T13:23:15.215Z,1.67
2023-08-22T13:25:46.042Z,2.42
2023-08-22T13:28:13.968Z,3.33
2023-08-22T13:30:42.055Z,1.42
2023-08-22T13:33:09.875Z,2.67
2023-08-22T13:35:38.717Z,1.88
2023-08-22T13:38:06.557Z,4.45
2023-08-22T13:40:34.632Z,1.70
2023-08-22T13:43:04.832Z,1.92
2023-08-22T13:45:32.687Z,2.63
2023-08-22T13:48:02.742Z,1.33
2023-08-22T13:50:33.260Z,1.02
2023-08-22T13:53:01.002Z,1.15
2023-08-22T13:55:28.947Z,1.00
2023-08-22T13:57:57.739Z,1.25
2023-08-22T14:00:28.206Z,2.92
2023-08-22T14:02:56.368Z,1.60
2023-08-22T14:05:24.253Z,2.20
2023-08-22T14:07:52.021Z,3.15
2023-08-22T14:10:24.664Z,1.52
2023-08-22T14:12:52.568Z,2.22
2023-08-22T14:15:20.574Z,2.15
2023-08-22T14:17:49.697Z,2.42
2023-08-22T14:20:17.665Z,3.55
2023-08-22T14:22:47.042Z,2.97
2023-08-22T14:25:14.831Z,2.63
2023-08-22T14:27:42.644Z,3.35
2023-08-22T14:30:13.495Z,4.38
2023-08-22T14:32:41.294Z,2.28
2023-08-22T14:35:10.890Z,3.78
2023-08-22T14:37:38.785Z,1.58
2023-08-22T14:40:07.975Z,2.42
2023-08-22T14:42:35.865Z,2.35
2023-08-22T14:45:04.671Z,2.13
2023-08-22T14:47:32.366Z,3.30
2023-08-22T14:50:00.101Z,2.63
2023-08-22T14:52:29.165Z,1.92
2023-08-22T14:54:56.970Z,3.08
2023-08-22T14:57:24.789Z,3.00
2023-08-22T14:59:52.542Z,2.80
2023-08-22T15:02:20.575Z,1.70
2023-08-22T15:04:49.307Z,4.03
2023-08-22T15:07:17.159Z,5.03
2023-08-22T15:09:47.749Z,2.58
2023-08-22T15:12:16.554Z,1.70
2023-08-22T15:14:44.336Z,3.17
2023-08-22T15:17:12.168Z,2.65
2023-08-22T15:19:40.250Z,2.60
2023-08-22T15:22:07.981Z,6.07
2023-08-22T15:24:35.714Z,4.65
2023-08-22T15:27:04.871Z,3.65
2023-08-22T15:29:32.611Z,2.55
2023-08-22T15:32:00.371Z,3.50
2023-08-22T15:34:28.110Z,2.78
2023-08-22T15:36:55.841Z,1.98
2023-08-22T15:39:23.599Z,5.28
2023-08-22T15:41:51.612Z,2.33
2023-08-22T15:44:20.737Z,2.80
2023-08-22T15:46:48.518Z,3.38
2023-08-22T15:49:16.812Z,2.13
2023-08-22T15:51:44.584Z,2.30
2023-08-22T15:54:12.343Z,2.65
2023-08-22T15:56:40.089Z,4.90
2023-08-22T15:59:07.853Z,4.18
2023-08-22T16:01:37.049Z,3.20
2023-08-22T16:04:05.021Z,3.08
2023-08-22T16:06:32.974Z,2.00
2023-08-22T16:09:00.766Z,4.03
2023-08-22T16:11:28.508Z,2.17
2023-08-22T16:13:56.214Z,2.97
2023-08-22T16:16:26.618Z,5.43
2023-08-22T16:18:57.879Z,3.83
2023-08-22T16:21:25.623Z,3.92
2023-08-22T16:23:53.331Z,4.50
2023-08-22T16:26:21.306Z,3.75
2023-08-22T16:28:50.061Z,2.85
2023-08-22T16:31:17.940Z,4.72
2023-08-22T16:33:45.854Z,4.75
2023-08-22T16:36:15.021Z,4.30
2023-08-22T16:38:42.902Z,2.03
2023-08-22T16:41:10.665Z,4.97
2023-08-22T16:43:38.393Z,3.03
2023-08-22T16:46:06.803Z,2.78
2023-08-22T16:48:34.710Z,2.67
2023-08-22T16:51:02.667Z,4.20
2023-08-22T16:53:35.961Z,4.22
2023-08-22T16:56:09.395Z,5.13
2023-08-22T16:58:40.704Z,2.97
2023-08-22T17:01:08.810Z,5.18
2023-08-22T17:03:36.861Z,2.60
2023-08-22T17:06:05.398Z,4.18
2023-08-22T17:08:34.635Z,5.20
2023-08-22T17:11:08.151Z,3.70
2023-08-22T17:13:37.061Z,3.22
2023-08-22T17:16:05.179Z,2.70
2023-08-22T17:18:33.544Z,4.05
2023-08-22T17:21:02.311Z,4.10
2023-08-22T17:23:30.422Z,3.38
2023-08-22T17:26:06.464Z,5.35
2023-08-22T17:28:34.207Z,2.28
2023-08-22T17:31:05.713Z,2.92
2023-08-22T17:33:36.580Z,5.03
2023-08-22T17:36:05.267Z,3.67
2023-08-22T17:38:33.207Z,7.28
2023-08-22T17:41:03.613Z,2.90
2023-08-22T17:43:34.466Z,2.83
2023-08-22T17:46:02.979Z,7.55
2023-08-22T17:48:31.016Z,4.22
2023-08-22T17:51:00.310Z,3.45
2023-08-22T17:53:28.803Z,3.15
2023-08-22T17:55:57.279Z,5.97
2023-08-22T17:58:25.310Z,2.92
2023-08-22T18:00:54.605Z,4.07
2023-08-22T18:03:22.652Z,3.75
2023-08-22T18:05:57.833Z,4.22
2023-08-22T18:08:26.438Z,2.95
2023-08-22T18:10:55.063Z,5.30
2023-08-22T18:13:23.327Z,3.67
2023-08-22T18:16:08.295Z,4.35
2023-08-22T18:18:41.055Z,5.30
2023-08-22T18:21:11.854Z,2.97
2023-08-22T18:23:41.177Z,2.53
2023-08-22T18:26:10.284Z,4.65
2023-08-22T18:28:38.455Z,5.55
2023-08-22T18:31:11.216Z,4.50
2023-08-22T18:33:40.691Z,5.55
2023-08-22T18:36:18.100Z,3.75
2023-08-22T18:38:45.965Z,4.38
2023-08-22T18:41:14.043Z,5.13
2023-08-22T18:43:43.757Z,4.97
2023-08-22T18:46:11.978Z,2.72
2023-08-22T18:48:41.494Z,4.38
2023-08-22T18:51:09.748Z,5.15
2023-08-22T18:53:37.944Z,2.88
2023-08-22T18:56:09.857Z,3.67
2023-08-22T18:58:38.636Z,3.92
2023-08-22T19:01:06.769Z,4.28
2023-08-22T19:03:34.693Z,3.50
2023-08-22T19:06:04.373Z,3.35
2023-08-22T19:08:32.688Z,4.72
2023-08-22T19:11:04.739Z,5.78
2023-08-22T19:13:32.768Z,4.40
2023-08-22T19:16:00.562Z,3.22
2023-08-22T19:18:28.424Z,4.60
2023-08-22T19:20:56.184Z,6.05
2023-08-22T19:23:25.282Z,4.25
2023-08-22T19:25:53.227Z,4.43
2023-08-22T19:28:20.913Z,4.32
2023-08-22T19:30:55.556Z,4.45
2023-08-22T19:33:25.583Z,4.45
2023-08-22T19:35:53.717Z,5.25
2023-08-22T19:38:23.385Z,4.40
2023-08-22T19:40:54.395Z,6.18
2023-08-22T19:43:22.048Z,3.90
2023-08-22T19:45:49.819Z,4.95
2023-08-22T19:48:17.619Z,4.55
2023-08-22T19:50:47.349Z,6.57
2023-08-22T19:53:15.236Z,4.28
2023-08-22T19:55:45.128Z,3.72
2023-08-22T19:58:14.217Z,3.80
2023-08-22T20:00:43.089Z,5.88
2023-08-22T20:03:10.828Z,3.70
2023-08-22T20:05:38.634Z,5.50
2023-08-22T20:08:06.575Z,4.03
2023-08-22T20:10:35.779Z,4.03
2023-08-22T20:13:03.647Z,4.38
2023-08-22T20:15:32.912Z,4.53
2023-08-22T20:18:00.695Z,5.35
2023-08-22T20:20:28.466Z,4.78
2023-08-22T20:22:56.254Z,6.38
2023-08-22T20:25:23.963Z,4.72
2023-08-22T20:27:52.317Z,5.18
2023-08-22T20:30:20.112Z,8.65
2023-08-22T20:32:49.248Z,12.23
2023-08-22T20:35:19.618Z,10.32
2023-08-22T20:37:48.374Z,7.50
2023-08-22T20:40:16.616Z,9.43
2023-08-22T20:42:44.455Z,8.23
2023-08-22T20:45:12.319Z,9.82
2023-08-22T20:47:40.023Z,6.85
2023-08-22T20:50:10.360Z,4.40
2023-08-22T20:52:38.050Z,7.72
2023-08-22T20:55:06.485Z,4.80
2023-08-22T20:57:34.187Z,6.10
2023-08-22T21:00:01.877Z,5.22
2023-08-22T21:02:29.674Z,4.53
2023-08-22T21:04:57.637Z,4.47
2023-08-22T21:07:26.731Z,4.85
2023-08-22T21:09:54.429Z,4.38
2023-08-22T21:12:22.178Z,5.50
2023-08-22T21:14:49.898Z,4.38
2023-08-22T21:17:18.330Z,5.45
2023-08-22T21:19:46.340Z,4.65
2023-08-22T21:22:14.047Z,6.28
2023-08-22T21:24:44.189Z,5.20
2023-08-22T21:27:12.781Z,4.47
2023-08-22T21:29:42.046Z,5.95
2023-08-22T21:32:09.777Z,5.38
2023-08-22T21:34:37.915Z,5.80
2023-08-22T21:37:05.990Z,5.63
2023-08-22T21:39:33.855Z,4.60
2023-08-22T21:42:03.280Z,5.30
2023-08-22T21:44:31.006Z,5.28
2023-08-22T21:46:58.735Z,4.55
2023-08-22T21:49:26.464Z,8.57
2023-08-22T21:51:54.745Z,8.40
2023-08-22T21:54:22.456Z,10.98
2023-08-22T21:56:50.160Z,21.57
2023-08-22T21:59:19.258Z,15.70
2023-08-22T22:01:47.147Z,24.98
2023-08-22T22:04:14.929Z,20.85
2023-08-22T22:06:42.634Z,54.15
2023-08-22T22:09:10.346Z,35.75
2023-08-22T22:11:38.116Z,26.07
2023-08-22T22:14:05.802Z,30.37
2023-08-22T22:16:44.604Z,36.17
2023-08-22T22:19:14.303Z,17.63
2023-08-22T22:21:42.811Z,25.17
2023-08-22T22:24:10.707Z,16.20
2023-08-22T22:26:38.402Z,15.73
2023-08-22T22:29:06.195Z,13.20
2023-08-22T22:31:35.356Z,17.33
2023-08-22T22:34:03.191Z,6.70
2023-08-22T22:36:30.868Z,12.03
2023-08-22T22:38:59.374Z,8.30
2023-08-22T22:41:27.382Z,9.17
2023-08-22T22:43:55.115Z,10.43
2023-08-22T22:46:22.856Z,7.10
2023-08-22T22:48:51.928Z,7.47
2023-08-22T22:51:19.676Z,10.23
2023-08-22T22:53:47.419Z,5.53
2023-08-22T22:56:15.140Z,6.37
2023-08-22T22:58:42.825Z,5.80
2023-08-22T23:01:10.811Z,6.90
2023-08-22T23:03:38.674Z,5.87
2023-08-22T23:06:09.286Z,6.57
2023-08-22T23:08:37.334Z,8.37
2023-08-22T23:11:09.416Z,9.93
2023-08-22T23:13:44.424Z,6.17
2023-08-22T23:16:12.313Z,7.40
2023-08-22T23:18:40.043Z,5.87
2023-08-22T23:21:09.729Z,6.63
2023-08-22T23:23:37.467Z,5.30
2023-08-22T23:26:05.185Z,5.70
2023-08-22T23:28:32.884Z,5.10
2023-08-22T23:31:00.623Z,6.13
2023-08-22T23:33:28.372Z,7.87
2023-08-22T23:35:56.073Z,5.07
2023-08-22T23:38:25.192Z,7.30
2023-08-22T23:40:52.947Z,5.17
2023-08-22T23:43:20.657Z,7.27
2023-08-22T23:45:48.433Z,6.07
2023-08-22T23:48:16.147Z,4.70
2023-08-22T23:50:43.965Z,7.60
2023-08-22T23:53:11.707Z,8.43
2023-08-22T23:55:40.810Z,5.90
2023-08-22T23:58:08.519Z,5.30
